Snow/Ice From: 16-01-2019 20:00 Until: 17-01-2019 10:00 warning for: Snow/Ice Level: Yellow info button


My webcam more information My webcam


Thunder radar more information blitzortung!


warning for Snow/Ice more information rain snow radar


Visit our other weather sites:

Template documentation
and downloads

And another site



Weather Underground History page Text

Daily Summary for January 16, 2019 Units:  Metric    English   Both
« Previous Day
Next Day »
Daily Weekly Monthly Yearly Custom
  Current: High: Low: Average:
Temperature: -16 °C -17.8 °C -16 °C -13.8 °C
Dew Point: -16.3 °C -17.8 °C -16.3 °C -14.4 °C
Humidity: 96 % Humidity % 86 % 92 %
Wind Speed: 0 km/h 0 km/h 0 km/h 6.3 km/h
Wind Gust: 3.1 km/h 0 km/h - -
Wind:Calm - - West
Pressure: 33981.9 hPa 0 hPa 33876.9 hPa -
Precipitation: 50.8 mm      
Historical Graphs
 
 
Tabular Data for January 16, 2019
Time Temperature Dew Point Pressure Wind Wind Speed Wind Gust Humidity Rainfall Rate (Hourly)
-17.8 °C -17.8 °C 0 hPa Calm     Humidity % 0 mm
00:01 -13.1 °C -14.3 °C 34320.5 hPa West 4.3 km/h 17.9 km/h 86 % 0 mm
00:06 -13.1 °C -14.3 °C 34320.5 hPa WNW 7.2 km/h 23.8 km/h 86 % 0 mm
00:11 -13.1 °C -14.3 °C 34313.7 hPa WNW 6.4 km/h 20.9 km/h 86 % 0 mm
00:16 -13.2 °C -14.4 °C 34313.7 hPa WNW 8.2 km/h 17.9 km/h 86 % 0 mm
00:21 -13.2 °C -14.4 °C 34310.3 hPa West 4.2 km/h 11.9 km/h 87 % 0 mm
00:26 -13.3 °C -14.4 °C 34307 hPa SW 9.3 km/h 20.9 km/h 87 % 0 mm
00:31 -13.3 °C -14.4 °C 34310.3 hPa West 5.1 km/h 20.9 km/h 87 % 0 mm
00:36 -13.4 °C -14.4 °C 34303.6 hPa WNW 2.3 km/h 9 km/h 88 % 0 mm
00:41 -13.4 °C -14.4 °C 34303.6 hPa WNW 3.1 km/h 9 km/h 88 % 0 mm
00:46 -13.4 °C -14.5 °C 34300.2 hPa WNW 2.3 km/h 9 km/h 88 % 0 mm
00:51 -13.4 °C -14.5 °C 34296.8 hPa West 1.6 km/h 9 km/h 88 % 0 mm
00:56 -13.4 °C -14.4 °C 34293.4 hPa Calm   9 km/h 88 % 0 mm
01:01 -13.4 °C -14.3 °C 34293.4 hPa West 0.5 km/h 3.1 km/h 89 % 0 mm
01:06 -13.3 °C -14.4 °C 34290 hPa SW 0.8 km/h 12.9 km/h 88 % 0 mm
01:11 -13.3 °C -14.4 °C 34286.6 hPa WNW 1.6 km/h 9 km/h 88 % 0 mm
01:16 -13.3 °C -14.3 °C 34286.6 hPa WNW 2.9 km/h 9 km/h 88 % 0 mm
01:21 -13.3 °C -14.4 °C 34283.3 hPa Calm     88 % 0 mm
01:26 -13.3 °C -14.3 °C 34279.9 hPa WNW 3.4 km/h 9 km/h 89 % 0 mm
01:31 -13.3 °C -14.3 °C 34276.5 hPa West 2.9 km/h 20.9 km/h 89 % 0 mm
01:36 -13.3 °C -14.3 °C 34276.5 hPa WNW 0.5 km/h 3.1 km/h 89 % 0 mm
01:41 -13.3 °C -14.3 °C 34273.1 hPa WNW 1 km/h 6 km/h 89 % 0 mm
01:46 -13.3 °C -14.1 °C 34273.1 hPa NW 2.1 km/h 20.9 km/h 90 % 0 mm
01:51 -13.3 °C -14.1 °C 34273.1 hPa West 1.3 km/h 9 km/h 90 % 0 mm
01:56 -13.2 °C -14.1 °C 34273.1 hPa West 4.3 km/h 15 km/h 90 % 0 mm
02:01 -13.2 °C -14.1 °C 34269.7 hPa West 5.6 km/h 15 km/h 90 % 0 mm
02:06 -13.2 °C -14 °C 34266.3 hPa SW 7.2 km/h 17.9 km/h 91 % 0 mm
02:11 -13.2 °C -14 °C 34266.3 hPa West 5.5 km/h 17.9 km/h 91 % 0 mm
02:16 -13.2 °C -14 °C 34262.9 hPa West 3.7 km/h 9 km/h 91 % 0 mm
02:21 -13.2 °C -14 °C 34259.5 hPa WNW 3.7 km/h 11.9 km/h 91 % 0 mm
02:26 -13.2 °C -14 °C 34259.5 hPa WNW 1.8 km/h 6 km/h 91 % 0 mm
02:31 -13.2 °C -14 °C 34259.5 hPa WNW 1 km/h 3.1 km/h 91 % 0 mm
02:36 -13.2 °C -13.9 °C 34252.8 hPa WNW 1.6 km/h 17.9 km/h 91 % 0 mm
02:41 -13.2 °C -13.9 °C 34252.8 hPa WNW 0.8 km/h 3.1 km/h 91 % 0 mm
02:46 -13.2 °C -13.9 °C 34249.4 hPa West 2.3 km/h 9 km/h 91 % 0 mm
02:51 -13.2 °C -13.9 °C 34249.4 hPa WNW 5 km/h 9 km/h 91 % 0 mm
02:56 -13.1 °C -13.9 °C 34249.4 hPa WNW 3.7 km/h 7.7 km/h 91 % 0 mm
03:01 -13.1 °C -13.8 °C 34246 hPa WNW 1.6 km/h 6 km/h 91 % 0 mm
03:06 -13.1 °C -13.9 °C 34242.6 hPa WNW 1.6 km/h 9 km/h 90 % 0 mm
03:11 -13.1 °C -13.9 °C 34235.8 hPa WNW 7.6 km/h 23.8 km/h 90 % 0 mm
03:16 -13.1 °C -14 °C 34232.5 hPa WSW 7.2 km/h 23.3 km/h 89 % 0 mm
03:21 -13 °C -14 °C 34229.1 hPa West 2.3 km/h 17.9 km/h 89 % 0 mm
03:26 -13 °C -14 °C 34229.1 hPa West 2.9 km/h 15 km/h 89 % 0 mm
03:31 -13 °C -14 °C 34225.7 hPa WNW 1.8 km/h 9 km/h 89 % 0 mm
03:36 -13.1 °C -14 °C 34222.3 hPa NNW 6 km/h 20.9 km/h 89 % 0 mm
03:41 -13.1 °C -14.1 °C 34218.9 hPa WNW 4.2 km/h 15 km/h 88 % 0 mm
03:46 -13.1 °C -14.1 °C 34215.5 hPa West 4.3 km/h 17.9 km/h 88 % 0 mm
03:51 -13.1 °C -14.1 °C 34218.9 hPa NW 3.7 km/h 9 km/h 88 % 0 mm
03:56 -13.1 °C -14 °C 34215.5 hPa West 4.7 km/h 15 km/h 89 % 0 mm
04:01 -13.1 °C -14 °C 34212.1 hPa SSW 2.9 km/h 15.6 km/h 89 % 0 mm
04:06 -13.1 °C -14 °C 34212.1 hPa West 4.3 km/h 15 km/h 89 % 0 mm
04:11 -13.1 °C -13.9 °C 34208.8 hPa West 6.8 km/h 17.9 km/h 90 % 0 mm
04:16 -13.1 °C -13.9 °C 34205.4 hPa WNW 2.6 km/h 15 km/h 90 % 0 mm
04:21 -13.1 °C -14 °C 34202 hPa SW 1.8 km/h 9 km/h 90 % 0 mm
04:26 -13.2 °C -14.1 °C 34202 hPa West 3.4 km/h 17.9 km/h 90 % 0 mm
04:31 -13.2 °C -14 °C 34198.6 hPa WNW 2.1 km/h 9 km/h 91 % 0 mm
04:36 -13.2 °C -14 °C 34198.6 hPa WSW 1.6 km/h 6 km/h 91 % 0 mm
04:41 -13.3 °C -14.1 °C 34198.6 hPa SSW 2.6 km/h 12.9 km/h 91 % 0 mm
04:46 -13.3 °C -14.1 °C 34195.2 hPa WNW 0.8 km/h 9 km/h 91 % 0 mm
04:51 -13.3 °C -14.1 °C 34195.2 hPa WNW 1.6 km/h 9 km/h 91 % 0 mm
04:56 -13.4 °C -14.1 °C 34191.8 hPa West 4.2 km/h 15 km/h 91 % 0 mm
05:01 -13.4 °C -14.1 °C 34191.8 hPa West 5 km/h 15 km/h 92 % 0 mm
05:06 -13.4 °C -14.1 °C 34188.4 hPa WNW 3.7 km/h 23.8 km/h 92 % 0 mm
05:11 -13.5 °C -14.2 °C 34188.4 hPa South 2.1 km/h 15 km/h 92 % 0 mm
05:16 -13.5 °C -14.2 °C 34181.7 hPa West 2.9 km/h 10.3 km/h 92 % 0 mm
05:21 -13.5 °C -14.2 °C 34181.7 hPa WNW 2.6 km/h 9 km/h 92 % 0 mm
05:26 -13.5 °C -14.2 °C 34178.3 hPa West 5.5 km/h 11.9 km/h 92 % 0 mm
05:31 -13.6 °C -14.1 °C 34174.9 hPa NW 6.4 km/h 23.8 km/h 93 % 0 mm
05:36 -13.6 °C -14.1 °C 34174.9 hPa WNW 6.9 km/h 23.8 km/h 93 % 0 mm
05:41 -13.6 °C -14.1 °C 34171.5 hPa West 7.2 km/h 15 km/h 93 % 0 mm
05:46 -13.6 °C -14.2 °C 34168.1 hPa WSW 4.2 km/h 9 km/h 93 % 0 mm
05:51 -13.6 °C -14.2 °C 34168.1 hPa WNW 6.3 km/h 26.9 km/h 93 % 0 mm
05:56 -13.6 °C -14.2 °C 34164.7 hPa WSW 6.3 km/h 15 km/h 93 % 0 mm
06:01 -13.6 °C -14.2 °C 34161.4 hPa NW 4.2 km/h 9 km/h 93 % 0 mm
06:06 -13.6 °C -14.2 °C 34161.4 hPa NW 3.9 km/h 9 km/h 93 % 0 mm
06:11 -13.6 °C -14.2 °C 34158 hPa WNW 6.9 km/h 17.9 km/h 93 % 0 mm
06:16 -13.6 °C -14.2 °C 34158 hPa WSW 2.9 km/h 10.3 km/h 93 % 0 mm
06:21 -13.6 °C -14.2 °C 34154.6 hPa NW 5 km/h 23.8 km/h 93 % 0 mm
06:26 -13.6 °C -14.2 °C 34151.2 hPa WNW 8.2 km/h 17.9 km/h 93 % 0 mm
06:31 -13.6 °C -14.2 °C 34151.2 hPa SW 8 km/h 15.6 km/h 93 % 0 mm
06:36 -13.6 °C -14.2 °C 34147.8 hPa West 9.7 km/h 29.8 km/h 93 % 0 mm
06:41 -13.6 °C -14.2 °C 34147.8 hPa SW 0.8 km/h 18.2 km/h 93 % 0 mm
06:46 -13.6 °C -14.2 °C 34151.2 hPa WNW 6.3 km/h 17.9 km/h 93 % 0 mm
06:51 -13.6 °C -14.2 °C 34144.4 hPa WNW 7.2 km/h 32.8 km/h 93 % 0 mm
06:56 -13.6 °C -14.2 °C 34144.4 hPa SSW 3.7 km/h 15 km/h 93 % 0 mm
07:01 -13.6 °C -14.2 °C 34147.8 hPa NW 5 km/h 15 km/h 93 % 0 mm
07:06 -13.6 °C -14.2 °C 34144.4 hPa SW 11.1 km/h 35.7 km/h 93 % 0 mm
07:11 -13.6 °C -14.3 °C 34141 hPa West 8.5 km/h 26.9 km/h 92 % 0 mm
07:16 -13.6 °C -14.3 °C 34141 hPa SW 9.8 km/h 23.8 km/h 92 % 0 mm
07:21 -13.6 °C -14.3 °C 34141 hPa WNW 2.6 km/h 9 km/h 92 % 0 mm
07:26 -13.6 °C -14.2 °C 34141 hPa West 1.6 km/h 6 km/h 92 % 0 mm
07:31 -13.6 °C -14.2 °C 34141 hPa WNW 4.2 km/h 15 km/h 92 % 0 mm
07:36 -13.6 °C -14.2 °C 34141 hPa West 5.6 km/h 20.9 km/h 92 % 0 mm
07:41 -13.6 °C -14.2 °C 34137.7 hPa West 6.3 km/h 17.9 km/h 92 % 0 mm
07:46 -13.6 °C -14.2 °C 34137.7 hPa WNW 11.9 km/h 20.9 km/h 92 % 0 mm
07:51 -13.5 °C -14.2 °C 34137.7 hPa NW 5.6 km/h 17.9 km/h 92 % 0 mm
07:56 -13.5 °C -14.2 °C 34137.7 hPa West 3.9 km/h 9 km/h 92 % 0 mm
08:01 -13.5 °C -14.3 °C 34134.3 hPa West 3.1 km/h 9 km/h 91 % 0 mm
08:06 -13.5 °C -14.3 °C 34134.3 hPa West 9 km/h 29.8 km/h 91 % 0 mm
08:11 -13.5 °C -14.3 °C 34124.1 hPa NW 6 km/h 23.8 km/h 91 % 0 mm
08:16 -13.5 °C -14.3 °C 34120.7 hPa NW 15.8 km/h 29.8 km/h 91 % 0 mm
08:21 -13.4 °C -14.2 °C 34120.7 hPa SSW 13.2 km/h 47.6 km/h 91 % 0 mm
08:26 -13.4 °C -14.2 °C 34120.7 hPa SW 15.3 km/h 44.7 km/h 91 % 0 mm
08:31 -13.4 °C -14.2 °C 34127.5 hPa WSW 9.8 km/h 29.8 km/h 91 % 0 mm
08:36 -13.4 °C -14.2 °C 34127.5 hPa WNW 5.5 km/h 20.9 km/h 91 % 0 mm
08:41 -13.4 °C -14.2 °C 34127.5 hPa SW 15.8 km/h 26.9 km/h 91 % 0 mm
08:46 -13.4 °C -14.2 °C 34127.5 hPa West 12.4 km/h 23.8 km/h 91 % 0 mm
08:51 -13.4 °C -14.2 °C 34124.1 hPa NNW 8 km/h 26.9 km/h 91 % 0 mm
08:56 -13.4 °C -14.2 °C 34124.1 hPa West 18.8 km/h 38.8 km/h 91 % 0 mm
09:01 -13.4 °C -14.2 °C 34120.7 hPa SW 11.6 km/h 29.8 km/h 91 % 0 mm
09:06 -13.4 °C -14.2 °C 34114 hPa SW 17.9 km/h 29.8 km/h 91 % 0 mm
09:11 -13.4 °C -14.2 °C 34117.3 hPa WSW 13.5 km/h 26.9 km/h 91 % 0 mm
09:16 -13.4 °C -14.2 °C 34117.3 hPa WNW 6.9 km/h 23.8 km/h 91 % 0 mm
09:21 -13.4 °C -14.2 °C 34114 hPa SSW 6 km/h 23.8 km/h 91 % 0 mm
09:26 -13.4 °C -14.3 °C 34110.6 hPa WSW 12.7 km/h 35.7 km/h 90 % 0 mm
09:31 -13.4 °C -14.2 °C 34110.6 hPa WSW 10.6 km/h 29.8 km/h 90 % 0 mm
09:36 -13.4 °C -14.2 °C 34110.6 hPa SW 12.2 km/h 29.8 km/h 90 % 0 mm
09:41 -13.4 °C -14.2 °C 34107.2 hPa NW 6 km/h 17.9 km/h 90 % 0 mm
09:46 -13.4 °C -14.2 °C 34100.4 hPa West 11.6 km/h 32.8 km/h 90 % 0 mm
09:51 -13.3 °C -14.2 °C 34103.8 hPa SE 10.3 km/h 28.5 km/h 90 % 0 mm
09:56 -13.3 °C -14.2 °C 34103.8 hPa West 10.6 km/h 23.8 km/h 90 % 0 mm
10:01 -13.3 °C -14.2 °C 34100.4 hPa WNW 9 km/h 35.7 km/h 90 % 0 mm
10:06 -13.3 °C -14.2 °C 34097 hPa WSW 12.9 km/h 38.8 km/h 90 % 0 mm
10:11 -13.3 °C -14.2 °C 34086.9 hPa SSW 22.9 km/h 44.7 km/h 90 % 0 mm
10:16 -13.3 °C -14.2 °C 34090.2 hPa SW 11.4 km/h 25.9 km/h 90 % 0 mm
10:21 -13.3 °C -14.2 °C 34090.2 hPa West 15 km/h 29.8 km/h 90 % 0 mm
10:26 -13.3 °C -14.2 °C 34090.2 hPa SSW 12.7 km/h 35.7 km/h 90 % 0 mm
10:31 -13.3 °C -14.2 °C 34086.9 hPa WSW 8.9 km/h 31.1 km/h 90 % 0 mm
10:36 -13.3 °C -14.2 °C 34080.1 hPa SW 11.4 km/h 38.8 km/h 90 % 0 mm
10:41 -13.4 °C -14.2 °C 34080.1 hPa West 13.7 km/h 35.7 km/h 90 % 0 mm
10:46 -13.4 °C -14.2 °C 34080.1 hPa WNW 6.4 km/h 17.9 km/h 90 % 0 mm
10:51 -13.4 °C -14.2 °C 34076.7 hPa WSW 12.7 km/h 29.8 km/h 90 % 0 mm
10:56 -13.3 °C -14.2 °C 34080.1 hPa WSW 13.5 km/h 29.8 km/h 90 % 0 mm
11:01 -13.3 °C -14.2 °C 34076.7 hPa SW 11.6 km/h 29.8 km/h 90 % 0 mm
11:06 -13.3 °C -14.2 °C 34073.3 hPa WSW 15.6 km/h 29.8 km/h 90 % 0 mm
11:11 -13.3 °C -14.2 °C 34069.9 hPa WSW 13.2 km/h 29.8 km/h 90 % 0 mm
11:16 -13.4 °C -14.2 °C 34063.2 hPa West 12.2 km/h 25.9 km/h 90 % 0 mm
11:21 -13.4 °C -14.2 °C 34059.8 hPa WSW 18.2 km/h 29.8 km/h 90 % 0 mm
11:26 -13.4 °C -14.3 °C 34049.6 hPa West 15 km/h 38.8 km/h 90 % 0 mm
11:31 -13.4 °C -14.2 °C 34046.2 hPa South 21.7 km/h 32.8 km/h 91 % 0 mm
11:36 -13.4 °C -14.2 °C 34042.8 hPa SSW 14.8 km/h 41.4 km/h 91 % 0 mm
11:41 -13.4 °C -14.1 °C 34039.5 hPa West 5.1 km/h 20.8 km/h 91 % 0 mm
11:46 -13.4 °C -14.1 °C 34036.1 hPa WSW 12.4 km/h 35.7 km/h 91 % 0 mm
11:51 -13.3 °C -14.2 °C 34032.7 hPa West 10.9 km/h 29.8 km/h 90 % 0 mm
11:56 -13.3 °C -14.2 °C 34032.7 hPa WSW 12.7 km/h 29.8 km/h 90 % 0 mm
12:01 -13.3 °C -14.2 °C 34025.9 hPa West 17.9 km/h 41.7 km/h 90 % 0 mm
12:06 -13.3 °C -14.2 °C 34025.9 hPa SSW 10.3 km/h 28.5 km/h 90 % 0 mm
12:11 -13.3 °C -14.2 °C 34022.5 hPa WNW 13.7 km/h 29.8 km/h 90 % 0 mm
12:16 -13.3 °C -14.2 °C 34015.8 hPa West 7.2 km/h 23.8 km/h 90 % 0 mm
12:21 -13.3 °C -14.1 °C 34012.4 hPa SW 5.1 km/h 15.6 km/h 91 % 0 mm
12:26 -13.3 °C -14.1 °C 34005.6 hPa SSW 6.3 km/h 17.9 km/h 91 % 0 mm
12:31 -13.3 °C -14.1 °C 34005.6 hPa NNE 11.6 km/h 35.7 km/h 91 % 0 mm
12:36 -13.3 °C -14.1 °C 33998.8 hPa SW 16.6 km/h 35.7 km/h 91 % 0 mm
12:41 -13.3 °C -14.1 °C 33995.4 hPa SW 10.1 km/h 15 km/h 91 % 0 mm
12:46 -13.3 °C -14.1 °C 33995.4 hPa WNW 15.8 km/h 29.8 km/h 91 % 0 mm
12:51 -13.4 °C -14.1 °C 33995.4 hPa WSW 15.6 km/h 29.8 km/h 91 % 0 mm
12:56 -13.4 °C -14.1 °C 33992.1 hPa SW 9.7 km/h 35.7 km/h 92 % 0 mm
13:01 -13.4 °C -14.1 °C 33985.3 hPa SW 9.8 km/h 28.5 km/h 92 % 0 mm
13:06 -13.4 °C -14.1 °C 33978.5 hPa WSW 17.4 km/h 32.8 km/h 92 % 0 mm
13:11 -13.4 °C -14.1 °C 33975.1 hPa WNW 20 km/h 50.7 km/h 92 % 7.62 mm
13:16 -13.4 °C -14.1 °C 33975.1 hPa WNW 9 km/h 29.8 km/h 92 % 7.62 mm
13:21 -13.4 °C -14.1 °C 33971.7 hPa WNW 16.1 km/h 53.6 km/h 92 % 7.62 mm
13:26 -13.4 °C -14.1 °C 33965 hPa WNW 18.3 km/h 38.8 km/h 93 % 7.62 mm
13:31 -13.4 °C -14.1 °C 33961.6 hPa SSW 12.9 km/h 29.8 km/h 93 % 7.62 mm
13:36 -13.4 °C -14.1 °C 33961.6 hPa WSW 20 km/h 47.6 km/h 93 % 7.62 mm
13:41 -13.4 °C -14.1 °C 33961.6 hPa WSW 6.9 km/h 35.7 km/h 93 % 7.62 mm
13:46 -13.5 °C -14.1 °C 33961.6 hPa WNW 14.5 km/h 47.6 km/h 93 % 7.62 mm
13:51 -13.5 °C -14.1 °C 33961.6 hPa SW 8.5 km/h 15 km/h 93 % 7.62 mm
13:56 -13.4 °C -14.1 °C 33954.8 hPa WSW 7.7 km/h 23.8 km/h 93 % 7.62 mm
14:01 -13.4 °C -14.1 °C 33954.8 hPa West 15 km/h 23.8 km/h 93 % 7.62 mm
14:06 -13.4 °C -14.1 °C 33948 hPa WNW 8.9 km/h 29.8 km/h 93 % 7.62 mm
14:11 -13.4 °C -14 °C 33948 hPa SW 14 km/h 35.7 km/h 93 % 0 mm
14:16 -13.4 °C -14 °C 33941.3 hPa West 14.5 km/h 35.7 km/h 93 % 0 mm
14:21 -13.4 °C -14 °C 33941.3 hPa SSW 13.5 km/h 29.8 km/h 93 % 0 mm
14:26 -13.4 °C -14.1 °C 33934.5 hPa SW 9.3 km/h 29.8 km/h 92 % 0 mm
14:31 -13.3 °C -14 °C 33931.1 hPa West 9.8 km/h 29.8 km/h 92 % 0 mm
14:36 -13.3 °C -14 °C 33931.1 hPa WSW 14 km/h 32.8 km/h 92 % 0 mm
14:41 -13.3 °C -14 °C 33931.1 hPa SW 5 km/h 23.8 km/h 92 % 0 mm
14:46 -13.3 °C -14 °C 33927.7 hPa South 9 km/h 23.8 km/h 92 % 0 mm
14:51 -13.3 °C -13.9 °C 33927.7 hPa West 8.9 km/h 29.8 km/h 92 % 0 mm
14:56 -13.2 °C -13.9 °C 33920.9 hPa West 14 km/h 47.6 km/h 92 % 0 mm
15:01 -13.2 °C -13.9 °C 33920.9 hPa WNW 5.1 km/h 10.3 km/h 92 % 0 mm
15:06 -13.2 °C -13.9 °C 33920.9 hPa SW 6.8 km/h 32.8 km/h 92 % 0 mm
15:11 -13.2 °C -13.9 °C 33920.9 hPa SW 19.5 km/h 31.1 km/h 92 % 0 mm
15:16 -13.2 °C -13.9 °C 33917.6 hPa SW 12.9 km/h 29.8 km/h 92 % 0 mm
15:21 -13.2 °C -13.9 °C 33910.8 hPa West 16.1 km/h 32.8 km/h 92 % 0 mm
15:26 -13.2 °C -13.9 °C 33914.2 hPa SW 14.8 km/h 29.8 km/h 92 % 0 mm
15:31 -13.2 °C -13.9 °C 33910.8 hPa SW 8.9 km/h 38.8 km/h 92 % 0 mm
15:36 -13.2 °C -13.9 °C 33914.2 hPa West 5.6 km/h 15 km/h 92 % 0 mm
15:41 -13.2 °C -13.9 °C 33907.4 hPa SW 14.2 km/h 41.7 km/h 92 % 0 mm
15:46 -13.2 °C -13.9 °C 33910.8 hPa West 8 km/h 23.8 km/h 92 % 0 mm
15:51 -13.2 °C -13.9 °C 33910.8 hPa West 6.8 km/h 11.9 km/h 92 % 7.62 mm
15:56 -13.2 °C -13.8 °C 33904 hPa WNW 8 km/h 23.8 km/h 93 % 7.62 mm
16:01 -13.2 °C -13.8 °C 33904 hPa WSW 8.2 km/h 26.9 km/h 93 % 7.62 mm
16:06 -13.2 °C -13.8 °C 33900.6 hPa West 4.3 km/h 11.9 km/h 93 % 7.62 mm
16:11 -13.2 °C -13.8 °C 33904 hPa West 6.8 km/h 11.9 km/h 93 % 7.62 mm
16:16 -13.2 °C -13.8 °C 33904 hPa WSW 5.6 km/h 15 km/h 93 % 7.62 mm
16:21 -13.2 °C -13.7 °C 33897.2 hPa WNW 2.9 km/h 15 km/h 94 % 7.62 mm
16:26 -13.2 °C -13.7 °C 33897.2 hPa West 2.9 km/h 9 km/h 94 % 7.62 mm
16:31 -13.2 °C -13.7 °C 33893.9 hPa WSW 10.3 km/h 29.8 km/h 94 % 7.62 mm
16:36 -13.2 °C -13.7 °C 33890.5 hPa WNW 3.4 km/h 9 km/h 94 % 7.62 mm
16:41 -13.2 °C -13.7 °C 33887.1 hPa WNW 5.1 km/h 17.9 km/h 94 % 7.62 mm
16:46 -13.2 °C -13.7 °C 33887.1 hPa WNW 3.9 km/h 29.8 km/h 94 % 7.62 mm
16:51 -13.1 °C -13.6 °C 33887.1 hPa WSW 6.3 km/h 23.8 km/h 94 % 0 mm
16:56 -13.1 °C -13.6 °C 33887.1 hPa West 0.5 km/h 3.1 km/h 94 % 0 mm
17:01 -13.1 °C -13.6 °C 33883.7 hPa WSW 2.6 km/h 9 km/h 94 % 0 mm
17:06 -13.1 °C -13.6 °C 33883.7 hPa West 2.9 km/h 9 km/h 94 % 0 mm
17:11 -13.1 °C -13.6 °C 33880.3 hPa West 6.8 km/h 15 km/h 94 % 0 mm
17:16 -13 °C -13.6 °C 33880.3 hPa WNW 5 km/h 15 km/h 93 % 0 mm
17:21 -13 °C -13.6 °C 33880.3 hPa WNW 5 km/h 11.9 km/h 93 % 0 mm
17:26 -13 °C -13.6 °C 33876.9 hPa West 6.9 km/h 36.2 km/h 93 % 0 mm
17:31 -12.9 °C -13.6 °C 33887.1 hPa WNW 5.6 km/h 18.2 km/h 93 % 0 mm
17:36 -13.5 °C -14.4 °C 33900.6 hPa South 20.3 km/h 29.8 km/h 89 % 20.32 mm
17:41 -13.9 °C -14.7 °C 33910.8 hPa WNW 13.7 km/h 29.8 km/h 91 % 25.4 mm
17:46 -14.2 °C -14.9 °C 33914.2 hPa West 14.5 km/h 29.8 km/h 92 % 25.4 mm
17:51 -14.3 °C -14.9 °C 33920.9 hPa WNW 8.2 km/h 28.5 km/h 93 % 33.02 mm
17:56 -14.3 °C -14.8 °C 33927.7 hPa WNW 4.2 km/h 11.9 km/h 94 % 33.02 mm
18:01 -14.3 °C -14.8 °C 33931.1 hPa WNW 6.4 km/h 10.3 km/h 94 % 33.02 mm
18:06 -14.4 °C -14.9 °C 33931.1 hPa NW 7.6 km/h 17.9 km/h 94 % 33.02 mm
18:11 -14.6 °C -15.1 °C 33931.1 hPa NNW 8.9 km/h 26.9 km/h 94 % 33.02 mm
18:16 -14.6 °C -15.1 °C 33931.1 hPa West 5 km/h 15.6 km/h 94 % 33.02 mm
18:21 -14.6 °C -15.1 °C 33931.1 hPa NW 4.3 km/h 9 km/h 94 % 33.02 mm
18:26 -14.6 °C -15.1 °C 33931.1 hPa WNW 2.6 km/h 17.9 km/h 94 % 33.02 mm
18:31 -14.6 °C -15.1 °C 33934.5 hPa WNW 6.8 km/h 11.9 km/h 94 % 38.1 mm
18:36 -14.6 °C -15.1 °C 33931.1 hPa WNW 3.9 km/h 15 km/h 94 % 12.7 mm
18:41 -14.7 °C -15.2 °C 33934.5 hPa WNW 3.7 km/h 15.6 km/h 94 % 12.7 mm
18:46 -14.7 °C -15.2 °C 33934.5 hPa NW 3.7 km/h 18.2 km/h 94 % 12.7 mm
18:51 -14.8 °C -15.2 °C 33927.7 hPa NW 2.9 km/h 15 km/h 94 % 7.62 mm
18:56 -14.8 °C -15.2 °C 33924.3 hPa WNW 0.3 km/h 6 km/h 95 % 12.7 mm
19:01 -14.8 °C -15.2 °C 33927.7 hPa Calm   3.1 km/h 95 % 12.7 mm
19:06 -14.8 °C -15.2 °C 33934.5 hPa Calm   3.1 km/h 95 % 12.7 mm
19:11 -14.8 °C -15.2 °C 33927.7 hPa NW 0.8 km/h 6 km/h 95 % 12.7 mm
19:16 -14.8 °C -15.2 °C 33927.7 hPa Calm   3.1 km/h 95 % 12.7 mm
19:21 -14.8 °C -15.2 °C 33931.1 hPa WNW 0.5 km/h 3.1 km/h 95 % 12.7 mm
19:26 -14.9 °C -15.3 °C 33931.1 hPa NW 1.3 km/h 3.1 km/h 95 % 12.7 mm
19:31 -14.9 °C -15.3 °C 33931.1 hPa NW 0.5 km/h 3.1 km/h 95 % 7.62 mm
19:36 -14.9 °C -15.3 °C 33941.3 hPa NW 2.1 km/h 6 km/h 95 % 7.62 mm
19:41 -14.9 °C -15.3 °C 33941.3 hPa WNW 0.8 km/h 6 km/h 95 % 7.62 mm
19:45 -14.8 °C -15.2 °C 33941.3 hPa WNW 1.3 km/h 3.1 km/h 95 % 7.62 mm
19:51 -14.8 °C -15.2 °C 33937.9 hPa Calm   3.1 km/h 95 % 7.62 mm
19:56 -14.8 °C -15.2 °C 33937.9 hPa WNW 2.6 km/h 9 km/h 95 % 0 mm
20:01 -14.9 °C -15.3 °C 33937.9 hPa WNW 1.3 km/h 6 km/h 95 % 0 mm
20:06 -14.9 °C -15.3 °C 33941.3 hPa WNW 0.8 km/h 3.1 km/h 95 % 0 mm
20:11 -14.9 °C -15.3 °C 33944.7 hPa Calm   5.1 km/h 95 % 0 mm
20:16 -14.9 °C -15.4 °C 33948 hPa WNW 0.3 km/h 3.1 km/h 95 % 0 mm
20:21 -14.9 °C -15.4 °C 33948 hPa Calm     95 % 0 mm
20:26 -14.9 °C -15.4 °C 33951.4 hPa Calm     95 % 0 mm
20:31 -15 °C -15.4 °C 33948 hPa WNW 0.8 km/h 3.1 km/h 95 % 0 mm
20:36 -15.1 °C -15.4 °C 33948 hPa Calm     95 % 0 mm
20:41 -15.1 °C -15.5 °C 33951.4 hPa Calm     95 % 0 mm
20:46 -15.1 °C -15.5 °C 33954.8 hPa Calm     95 % 0 mm
20:51 -15.2 °C -15.6 °C 33954.8 hPa Calm     95 % 0 mm
20:56 -15.2 °C -15.7 °C 33954.8 hPa Calm     95 % 0 mm
21:01 -15.3 °C -15.7 °C 33958.2 hPa Calm     95 % 0 mm
21:06 -15.3 °C -15.6 °C 33961.6 hPa Calm     96 % 0 mm
21:11 -15.3 °C -15.6 °C 33961.6 hPa Calm     96 % 0 mm
21:16 -15.3 °C -15.6 °C 33961.6 hPa Calm     96 % 0 mm
21:21 -15.3 °C -15.7 °C 33961.6 hPa Calm     96 % 0 mm
21:26 -15.3 °C -15.6 °C 33961.6 hPa Calm     96 % 0 mm
21:31 -15.3 °C -15.6 °C 33961.6 hPa Calm     96 % 0 mm
21:36 -15.3 °C -15.6 °C 33961.6 hPa Calm     96 % 0 mm
21:41 -15.3 °C -15.7 °C 33965 hPa Calm     96 % 0 mm
21:46 -15.3 °C -15.7 °C 33965 hPa Calm     96 % 0 mm
21:51 -15.3 °C -15.7 °C 33965 hPa Calm     96 % 0 mm
21:56 -15.3 °C -15.6 °C 33968.4 hPa WNW 0.8 km/h 3.1 km/h 96 % 0 mm
22:01 -15.3 °C -15.6 °C 33968.4 hPa WNW 0.3 km/h 3.1 km/h 96 % 0 mm
22:06 -15.3 °C -15.6 °C 33971.7 hPa Calm     96 % 0 mm
22:11 -15.3 °C -15.6 °C 33968.4 hPa WNW 0.3 km/h 6 km/h 96 % 0 mm
22:16 -15.3 °C -15.6 °C 33968.4 hPa WNW 2.1 km/h 9 km/h 96 % 0 mm
22:21 -15.3 °C -15.6 °C 33968.4 hPa WNW 0.3 km/h 3.1 km/h 96 % 0 mm
22:26 -15.3 °C -15.7 °C 33968.4 hPa WNW 0.3 km/h 3.1 km/h 96 % 0 mm
22:31 -15.4 °C -15.7 °C 33968.4 hPa West 0.8 km/h 5.1 km/h 96 % 0 mm
22:36 -15.4 °C -15.8 °C 33971.7 hPa Calm     96 % 0 mm
22:41 -15.5 °C -15.8 °C 33975.1 hPa WNW 0.5 km/h 3.1 km/h 96 % 0 mm
22:46 -15.6 °C -15.9 °C 33975.1 hPa Calm     96 % 0 mm
22:51 -15.7 °C -16 °C 33978.5 hPa Calm   3.1 km/h 96 % 0 mm
22:56 -15.7 °C -16.1 °C 33978.5 hPa Calm     96 % 0 mm
23:01 -15.8 °C -16.1 °C 33978.5 hPa Calm     96 % 0 mm
23:06 -15.9 °C -16.2 °C 33978.5 hPa Calm     96 % 0 mm
23:11 -15.9 °C -16.2 °C 33981.9 hPa Calm     96 % 0 mm
23:16 -15.9 °C -16.3 °C 33981.9 hPa SW 0.3 km/h 2.6 km/h 96 % 0 mm
23:21 -15.9 °C -16.3 °C 33981.9 hPa Calm   3.1 km/h 96 % 0 mm
23:26 -15.9 °C -16.3 °C 33981.9 hPa Calm   3.1 km/h 96 % 0 mm
23:31 -16 °C -16.3 °C 33981.9 hPa Calm   3.1 km/h 96 % 0 mm
Eddington, Herne Bay, UK
Compliments of Weather Underground - 4 mb

Script developed by  Jim McMurry - jmcmurry@mwt.net Adapted for the template by  Wim van der Kuil - Leuven-Template.eu

You find our weather info also at:

UK Metoffice

WeatherCloud

Weather Underground

Equipment we use:

Weather-station
Davis Vantage Vue

Weather-program
Weather Display

Weather-server
Lenovo laptop

Provider
Falcoda Internet

Davis Vantage Vue

Weather Display

Lenovo laptop

Falcoda Internet